Lodz, Poland

6:19 AM CET on March 28, 2015 (GMT +0100)
Lublinek | | Change Station
CLOSE
Current Station
Airport
Location: Lublinek,
Elevation: 604 ft
Nearby Weather Stations

Elev 604 ft 51.72 °N, 19.40 °E | Updated 19 minutes ago

Mostly Cloudy
Mostly Cloudy
37 °F
Feels Like 34 °F
N
5
Wind Variable Wind from WNW

Today
High -- | Low -- °F
--% Chance of Precip.
Yesterday
High -- | Low -- °F
Precip. -- in
5:27 AM 6:08 PM
First Quarter, 59% visible
Pressure 30.04 in
Visibility -9999.0 miles
Clouds Scattered Clouds 400 ft
Mostly Cloudy 2800 ft
Windchill 34 °F
Dew Point 37 °F
Humidity 100%
Rainfall 0.00 in
Snow Depth Not available.
UV 0 out of 12
Pollen Not available.
Air Quality Not available.
Flu Activity Not available.
METAR EPLL 280500Z 30004KT 3600 BR SCT004 BKN028 03/03 Q1017

More Conditions Fewer Conditions

Pressure 30.04 in
Visibility -9999.0 miles
Clouds Scattered Clouds 400 ft
Mostly Cloudy 2800 ft
Windchill 34 °F
Dew Point 37 °F
Humidity 100%
Rainfall 0.00 in
Snow Depth Not available.
UV 0 out of 12
Pollen Not available.
Air Quality Not available.
Flu Activity Not available.
METAR EPLL 280500Z 30004KT 3600 BR SCT004 BKN028 03/03 Q1017

More Conditions Fewer Conditions

10-Day Weather Forecast

Almanac

Astronomy

Mar. 28, 2015 Rise Set
Actual Time
Civil Twilight
Nautical Twilight
Astronomical Twilight
Moon
Length of Visible Light
Length of Day
Tomorrow will be .
, % of the Moon is Illuminated

Today's Extremes

Country Highs Country Lows

Community

WunderPhotos

Upload Photos

1,808,934 photos uploaded!

WunderBlogs® & News

Nearby

Air Quality

  Air Quality AQ Index Pollutant
Not available.

Snow Depth

Station Depth Elevation

Earthquake Activity

City Distance Mag. Time & Date
Minimum magnitude displayed is 2.5.

Coastal Water Temperatures

Place Temperature

Stations

Nearby Weather Stations

Station Location Temp. Windchill Dew Point Humidity Wind Precip. Elev Updated Type